sensor_id;sensor_type;location;lat;lon;timestamp;temperature;humidity
76203;DHT22;64985;46.364;17.008;2023-05-07T00:00:20;14.40;99.90
76203;DHT22;64985;46.364;17.008;2023-05-07T00:03:22;14.50;99.90
76203;DHT22;64985;46.364;17.008;2023-05-07T00:06:25;14.40;99.90
76203;DHT22;64985;46.364;17.008;2023-05-07T00:09:28;14.40;99.90
76203;DHT22;64985;46.364;17.008;2023-05-07T00:12:30;14.40;99.90
76203;DHT22;64985;46.364;17.008;2023-05-07T00:15:36;14.40;99.90
76203;DHT22;64985;46.364;17.008;2023-05-07T00:18:38;14.40;99.90
76203;DHT22;64985;46.364;17.008;2023-05-07T00:21:40;14.40;99.90
76203;DHT22;64985;46.364;17.008;2023-05-07T00:24:42;14.30;99.90
76203;DHT22;64985;46.364;17.008;2023-05-07T00:27:44;14.30;99.90
76203;DHT22;64985;46.364;17.008;2023-05-07T00:30:46;14.30;99.90
76203;DHT22;64985;46.364;17.008;2023-05-07T00:33:48;14.20;99.90
76203;DHT22;64985;46.364;17.008;2023-05-07T00:36:51;14.20;99.90
76203;DHT22;64985;46.364;17.008;2023-05-07T00:39:53;14.10;99.90
76203;DHT22;64985;46.364;17.008;2023-05-07T00:42:55;14.10;99.90
76203;DHT22;64985;46.364;17.008;2023-05-07T00:46:00;14.00;99.90
76203;DHT22;64985;46.364;17.008;2023-05-07T00:49:03;13.90;99.90
76203;DHT22;64985;46.364;17.008;2023-05-07T00:52:07;13.90;99.90
76203;DHT22;64985;46.364;17.008;2023-05-07T00:55:09;13.80;99.90
76203;DHT22;64985;46.364;17.008;2023-05-07T00:58:12;13.70;99.90
76203;DHT22;64985;46.364;17.008;2023-05-07T01:01:14;13.70;99.90
76203;DHT22;64985;46.364;17.008;2023-05-07T01:04:18;13.70;99.90
76203;DHT22;64985;46.364;17.008;2023-05-07T01:07:21;13.60;99.90
76203;DHT22;64985;46.364;17.008;2023-05-07T01:10:24;13.60;99.90
76203;DHT22;64985;46.364;17.008;2023-05-07T01:13:27;13.60;99.90
76203;DHT22;64985;46.364;17.008;2023-05-07T01:16:30;13.70;99.90
76203;DHT22;64985;46.364;17.008;2023-05-07T01:19:33;13.70;99.90
76203;DHT22;64985;46.364;17.008;2023-05-07T01:22:36;13.70;99.90
76203;DHT22;64985;46.364;17.008;2023-05-07T01:25:38;13.70;99.90
76203;DHT22;64985;46.364;17.008;2023-05-07T01:28:41;13.70;99.90
76203;DHT22;64985;46.364;17.008;2023-05-07T01:31:43;13.70;99.90
76203;DHT22;64985;46.364;17.008;2023-05-07T01:34:48;13.70;99.90
76203;DHT22;64985;46.364;17.008;2023-05-07T01:37:52;13.70;99.90
76203;DHT22;64985;46.364;17.008;2023-05-07T01:40:55;13.70;99.90
76203;DHT22;64985;46.364;17.008;2023-05-07T01:43:58;13.80;99.90
76203;DHT22;64985;46.364;17.008;2023-05-07T01:47:02;13.80;99.90
76203;DHT22;64985;46.364;17.008;2023-05-07T01:50:06;13.70;99.90
76203;DHT22;64985;46.364;17.008;2023-05-07T01:53:10;13.70;99.90
76203;DHT22;64985;46.364;17.008;2023-05-07T01:56:13;13.70;99.90
76203;DHT22;64985;46.364;17.008;2023-05-07T01:59:15;13.70;99.90
76203;DHT22;64985;46.364;17.008;2023-05-07T02:02:17;13.80;99.90
76203;DHT22;64985;46.364;17.008;2023-05-07T02:05:19;13.80;99.90
76203;DHT22;64985;46.364;17.008;2023-05-07T02:08:21;13.80;99.90
76203;DHT22;64985;46.364;17.008;2023-05-07T02:11:24;13.80;99.90
76203;DHT22;64985;46.364;17.008;2023-05-07T02:14:27;13.80;99.90
76203;DHT22;64985;46.364;17.008;2023-05-07T02:17:29;13.80;99.90
76203;DHT22;64985;46.364;17.008;2023-05-07T02:20:33;13.90;99.90
76203;DHT22;64985;46.364;17.008;2023-05-07T02:23:35;13.90;99.90
76203;DHT22;64985;46.364;17.008;2023-05-07T02:26:38;13.90;99.90
76203;DHT22;64985;46.364;17.008;2023-05-07T02:29:40;13.90;99.90
76203;DHT22;64985;46.364;17.008;2023-05-07T02:32:42;13.90;99.90
76203;DHT22;64985;46.364;17.008;2023-05-07T02:35:44;13.90;99.90
76203;DHT22;64985;46.364;17.008;2023-05-07T02:38:47;13.90;99.90
76203;DHT22;64985;46.364;17.008;2023-05-07T02:41:49;13.90;99.90
76203;DHT22;64985;46.364;17.008;2023-05-07T02:44:51;13.80;99.90
76203;DHT22;64985;46.364;17.008;2023-05-07T02:47:53;13.80;99.90
76203;DHT22;64985;46.364;17.008;2023-05-07T02:50:55;13.80;99.90
76203;DHT22;64985;46.364;17.008;2023-05-07T02:53:58;13.80;99.90
76203;DHT22;64985;46.364;17.008;2023-05-07T02:57:00;13.80;99.90
76203;DHT22;64985;46.364;17.008;2023-05-07T03:00:16;13.70;99.90
76203;DHT22;64985;46.364;17.008;2023-05-07T03:03:19;13.70;99.90
76203;DHT22;64985;46.364;17.008;2023-05-07T03:06:21;13.70;99.90
76203;DHT22;64985;46.364;17.008;2023-05-07T03:09:24;13.60;99.90
76203;DHT22;64985;46.364;17.008;2023-05-07T03:12:26;13.60;99.90
76203;DHT22;64985;46.364;17.008;2023-05-07T03:15:29;13.50;99.90
76203;DHT22;64985;46.364;17.008;2023-05-07T03:18:31;13.40;99.90
76203;DHT22;64985;46.364;17.008;2023-05-07T03:21:33;13.40;99.90
76203;DHT22;64985;46.364;17.008;2023-05-07T03:24:36;13.20;99.90
76203;DHT22;64985;46.364;17.008;2023-05-07T03:27:38;13.10;99.90
76203;DHT22;64985;46.364;17.008;2023-05-07T03:30:40;12.90;99.90
76203;DHT22;64985;46.364;17.008;2023-05-07T03:33:51;12.80;99.90
76203;DHT22;64985;46.364;17.008;2023-05-07T03:36:54;12.70;99.90
76203;DHT22;64985;46.364;17.008;2023-05-07T03:39:56;12.60;99.90
76203;DHT22;64985;46.364;17.008;2023-05-07T03:42:59;12.50;99.90
76203;DHT22;64985;46.364;17.008;2023-05-07T03:46:02;12.30;99.90
76203;DHT22;64985;46.364;17.008;2023-05-07T03:49:04;12.30;99.90
76203;DHT22;64985;46.364;17.008;2023-05-07T03:52:06;12.20;99.90
76203;DHT22;64985;46.364;17.008;2023-05-07T03:55:09;12.20;99.90
76203;DHT22;64985;46.364;17.008;2023-05-07T03:58:11;12.20;99.90
76203;DHT22;64985;46.364;17.008;2023-05-07T04:01:13;12.20;99.90
76203;DHT22;64985;46.364;17.008;2023-05-07T04:04:15;12.20;99.90
76203;DHT22;64985;46.364;17.008;2023-05-07T04:07:18;12.20;99.90
76203;DHT22;64985;46.364;17.008;2023-05-07T04:10:20;12.30;99.90
76203;DHT22;64985;46.364;17.008;2023-05-07T04:13:22;12.30;99.90
76203;DHT22;64985;46.364;17.008;2023-05-07T04:16:24;12.40;99.90
76203;DHT22;64985;46.364;17.008;2023-05-07T04:19:27;12.50;99.90
76203;DHT22;64985;46.364;17.008;2023-05-07T04:22:29;12.60;99.90
76203;DHT22;64985;46.364;17.008;2023-05-07T04:25:31;12.70;99.90
76203;DHT22;64985;46.364;17.008;2023-05-07T04:28:34;12.80;99.90
76203;DHT22;64985;46.364;17.008;2023-05-07T04:31:36;12.90;99.90
76203;DHT22;64985;46.364;17.008;2023-05-07T04:34:39;13.00;99.90
76203;DHT22;64985;46.364;17.008;2023-05-07T04:37:41;13.10;99.90
76203;DHT22;64985;46.364;17.008;2023-05-07T04:40:43;13.20;99.90
76203;DHT22;64985;46.364;17.008;2023-05-07T04:43:45;13.30;99.90
76203;DHT22;64985;46.364;17.008;2023-05-07T04:46:47;13.50;99.90
76203;DHT22;64985;46.364;17.008;2023-05-07T04:49:50;13.60;99.90
76203;DHT22;64985;46.364;17.008;2023-05-07T04:52:52;13.60;99.90
76203;DHT22;64985;46.364;17.008;2023-05-07T04:55:56;13.70;99.90
76203;DHT22;64985;46.364;17.008;2023-05-07T04:58:58;13.80;99.90
76203;DHT22;64985;46.364;17.008;2023-05-07T05:02:00;13.90;99.90
76203;DHT22;64985;46.364;17.008;2023-05-07T05:05:03;14.10;99.90
76203;DHT22;64985;46.364;17.008;2023-05-07T05:08:05;14.20;99.90
76203;DHT22;64985;46.364;17.008;2023-05-07T05:11:08;14.30;99.90
76203;DHT22;64985;46.364;17.008;2023-05-07T05:14:10;14.40;99.90
76203;DHT22;64985;46.364;17.008;2023-05-07T05:17:12;14.50;99.90
76203;DHT22;64985;46.364;17.008;2023-05-07T05:20:14;14.70;99.90
76203;DHT22;64985;46.364;17.008;2023-05-07T05:23:16;14.90;99.90
76203;DHT22;64985;46.364;17.008;2023-05-07T05:26:19;15.20;99.90
76203;DHT22;64985;46.364;17.008;2023-05-07T05:29:23;15.30;99.90
76203;DHT22;64985;46.364;17.008;2023-05-07T05:32:25;15.40;99.90
76203;DHT22;64985;46.364;17.008;2023-05-07T05:35:27;15.50;99.90
76203;DHT22;64985;46.364;17.008;2023-05-07T05:38:29;15.50;99.90
76203;DHT22;64985;46.364;17.008;2023-05-07T05:41:31;15.50;99.90
76203;DHT22;64985;46.364;17.008;2023-05-07T05:44:34;15.50;99.90
76203;DHT22;64985;46.364;17.008;2023-05-07T05:47:36;15.50;99.90
76203;DHT22;64985;46.364;17.008;2023-05-07T05:50:39;15.50;99.90
76203;DHT22;64985;46.364;17.008;2023-05-07T05:53:41;15.60;99.90
76203;DHT22;64985;46.364;17.008;2023-05-07T05:56:43;15.60;99.90
76203;DHT22;64985;46.364;17.008;2023-05-07T05:59:46;15.70;99.90
76203;DHT22;64985;46.364;17.008;2023-05-07T06:02:49;15.80;99.90
76203;DHT22;64985;46.364;17.008;2023-05-07T06:05:51;16.10;99.90
76203;DHT22;64985;46.364;17.008;2023-05-07T06:08:53;16.30;99.90
76203;DHT22;64985;46.364;17.008;2023-05-07T06:11:56;16.60;99.90
76203;DHT22;64985;46.364;17.008;2023-05-07T06:15:01;16.90;99.90
76203;DHT22;64985;46.364;17.008;2023-05-07T06:18:03;17.20;99.90
76203;DHT22;64985;46.364;17.008;2023-05-07T06:21:06;17.70;99.90
76203;DHT22;64985;46.364;17.008;2023-05-07T06:24:08;17.90;99.90
76203;DHT22;64985;46.364;17.008;2023-05-07T06:27:10;18.30;99.90
76203;DHT22;64985;46.364;17.008;2023-05-07T06:30:12;18.40;99.90
76203;DHT22;64985;46.364;17.008;2023-05-07T06:33:14;18.30;99.90
76203;DHT22;64985;46.364;17.008;2023-05-07T06:36:16;18.30;99.90
76203;DHT22;64985;46.364;17.008;2023-05-07T06:39:19;18.30;99.90
76203;DHT22;64985;46.364;17.008;2023-05-07T06:42:21;18.30;99.90
76203;DHT22;64985;46.364;17.008;2023-05-07T06:45:23;18.40;99.90
76203;DHT22;64985;46.364;17.008;2023-05-07T06:48:27;18.90;99.90
76203;DHT22;64985;46.364;17.008;2023-05-07T06:51:29;19.40;99.90
76203;DHT22;64985;46.364;17.008;2023-05-07T06:54:32;20.00;99.90
76203;DHT22;64985;46.364;17.008;2023-05-07T06:57:34;20.70;99.90
76203;DHT22;64985;46.364;17.008;2023-05-07T07:00:36;21.30;99.90
76203;DHT22;64985;46.364;17.008;2023-05-07T07:03:38;21.60;97.00
76203;DHT22;64985;46.364;17.008;2023-05-07T07:06:40;22.00;97.20
76203;DHT22;64985;46.364;17.008;2023-05-07T07:09:43;22.60;93.40
76203;DHT22;64985;46.364;17.008;2023-05-07T07:12:45;23.00;90.40
76203;DHT22;64985;46.364;17.008;2023-05-07T07:15:47;23.40;89.30
76203;DHT22;64985;46.364;17.008;2023-05-07T07:18:49;23.80;88.10
76203;DHT22;64985;46.364;17.008;2023-05-07T07:21:51;23.90;82.50
76203;DHT22;64985;46.364;17.008;2023-05-07T07:24:54;24.00;84.10
76203;DHT22;64985;46.364;17.008;2023-05-07T07:27:56;24.20;79.90
76203;DHT22;64985;46.364;17.008;2023-05-07T07:30:59;24.30;82.00
76203;DHT22;64985;46.364;17.008;2023-05-07T07:34:01;24.80;75.80
76203;DHT22;64985;46.364;17.008;2023-05-07T07:37:04;25.00;77.50
76203;DHT22;64985;46.364;17.008;2023-05-07T07:40:08;25.10;73.20
76203;DHT22;64985;46.364;17.008;2023-05-07T07:43:15;25.00;70.40
76203;DHT22;64985;46.364;17.008;2023-05-07T07:46:18;24.90;72.60
76203;DHT22;64985;46.364;17.008;2023-05-07T07:49:20;25.10;74.90
76203;DHT22;64985;46.364;17.008;2023-05-07T07:52:22;25.30;73.50
76203;DHT22;64985;46.364;17.008;2023-05-07T07:55:24;25.70;69.70
76203;DHT22;64985;46.364;17.008;2023-05-07T07:58:26;25.60;68.80
76203;DHT22;64985;46.364;17.008;2023-05-07T08:01:32;25.70;71.20
76203;DHT22;64985;46.364;17.008;2023-05-07T08:04:34;26.30;67.70
76203;DHT22;64985;46.364;17.008;2023-05-07T08:07:37;26.00;67.50
76203;DHT22;64985;46.364;17.008;2023-05-07T08:10:40;26.40;67.60
76203;DHT22;64985;46.364;17.008;2023-05-07T08:13:42;26.80;63.10
76203;DHT22;64985;46.364;17.008;2023-05-07T08:16:44;26.90;63.80
76203;DHT22;64985;46.364;17.008;2023-05-07T08:19:47;27.10;64.10
76203;DHT22;64985;46.364;17.008;2023-05-07T08:22:49;27.90;55.60
76203;DHT22;64985;46.364;17.008;2023-05-07T08:25:51;28.10;56.80
76203;DHT22;64985;46.364;17.008;2023-05-07T08:28:54;28.10;57.80
76203;DHT22;64985;46.364;17.008;2023-05-07T08:31:56;27.60;57.10
76203;DHT22;64985;46.364;17.008;2023-05-07T08:34:58;27.10;57.50
76203;DHT22;64985;46.364;17.008;2023-05-07T08:38:00;27.30;54.40
76203;DHT22;64985;46.364;17.008;2023-05-07T08:41:02;27.50;54.40
76203;DHT22;64985;46.364;17.008;2023-05-07T08:44:06;27.50;55.70
76203;DHT22;64985;46.364;17.008;2023-05-07T08:47:13;27.40;54.10
76203;DHT22;64985;46.364;17.008;2023-05-07T08:50:15;27.60;50.50
76203;DHT22;64985;46.364;17.008;2023-05-07T08:53:17;27.70;50.20
76203;DHT22;64985;46.364;17.008;2023-05-07T08:56:20;27.80;55.20
76203;DHT22;64985;46.364;17.008;2023-05-07T08:59:23;28.30;53.70
76203;DHT22;64985;46.364;17.008;2023-05-07T09:02:26;28.40;51.00
76203;DHT22;64985;46.364;17.008;2023-05-07T09:05:28;28.20;55.90
76203;DHT22;64985;46.364;17.008;2023-05-07T09:08:33;28.40;53.40
76203;DHT22;64985;46.364;17.008;2023-05-07T09:11:36;27.90;53.50
76203;DHT22;64985;46.364;17.008;2023-05-07T09:14:38;28.10;54.60
76203;DHT22;64985;46.364;17.008;2023-05-07T09:17:41;27.50;52.50
76203;DHT22;64985;46.364;17.008;2023-05-07T09:20:44;27.20;53.40
76203;DHT22;64985;46.364;17.008;2023-05-07T09:23:54;27.90;55.20
76203;DHT22;64985;46.364;17.008;2023-05-07T09:27:00;27.10;52.30
76203;DHT22;64985;46.364;17.008;2023-05-07T09:30:04;27.20;51.50
76203;DHT22;64985;46.364;17.008;2023-05-07T09:33:08;27.50;55.60
76203;DHT22;64985;46.364;17.008;2023-05-07T09:36:11;27.70;53.10
76203;DHT22;64985;46.364;17.008;2023-05-07T09:39:13;27.90;55.10
76203;DHT22;64985;46.364;17.008;2023-05-07T09:42:16;28.30;54.60
76203;DHT22;64985;46.364;17.008;2023-05-07T09:45:28;28.20;56.40
76203;DHT22;64985;46.364;17.008;2023-05-07T09:48:31;28.10;54.70
76203;DHT22;64985;46.364;17.008;2023-05-07T09:51:45;28.40;53.10
76203;DHT22;64985;46.364;17.008;2023-05-07T09:54:48;28.60;54.80
76203;DHT22;64985;46.364;17.008;2023-05-07T09:57:53;28.40;54.10
76203;DHT22;64985;46.364;17.008;2023-05-07T10:00:56;28.30;55.30
76203;DHT22;64985;46.364;17.008;2023-05-07T10:04:01;28.10;54.40
76203;DHT22;64985;46.364;17.008;2023-05-07T10:07:04;28.20;52.10
76203;DHT22;64985;46.364;17.008;2023-05-07T10:10:08;28.40;53.10
76203;DHT22;64985;46.364;17.008;2023-05-07T10:13:10;28.20;52.00
76203;DHT22;64985;46.364;17.008;2023-05-07T10:16:13;28.30;53.80
76203;DHT22;64985;46.364;17.008;2023-05-07T10:19:16;28.50;51.80
76203;DHT22;64985;46.364;17.008;2023-05-07T10:22:20;28.60;53.80
76203;DHT22;64985;46.364;17.008;2023-05-07T10:25:30;29.10;54.70
76203;DHT22;64985;46.364;17.008;2023-05-07T10:28:38;29.50;50.20
76203;DHT22;64985;46.364;17.008;2023-05-07T10:31:56;29.70;50.60
76203;DHT22;64985;46.364;17.008;2023-05-07T10:35:02;29.30;51.20
76203;DHT22;64985;46.364;17.008;2023-05-07T10:38:05;29.70;49.50
76203;DHT22;64985;46.364;17.008;2023-05-07T10:41:08;30.30;48.20
76203;DHT22;64985;46.364;17.008;2023-05-07T10:44:10;30.20;49.00
76203;DHT22;64985;46.364;17.008;2023-05-07T10:47:14;30.50;47.50
76203;DHT22;64985;46.364;17.008;2023-05-07T10:53:20;30.90;46.10
76203;DHT22;64985;46.364;17.008;2023-05-07T10:56:24;30.70;44.40
76203;DHT22;64985;46.364;17.008;2023-05-07T10:59:31;30.90;42.00
76203;DHT22;64985;46.364;17.008;2023-05-07T11:03:06;30.90;43.40
76203;DHT22;64985;46.364;17.008;2023-05-07T11:06:14;30.30;49.10
76203;DHT22;64985;46.364;17.008;2023-05-07T11:09:16;30.70;47.40
76203;DHT22;64985;46.364;17.008;2023-05-07T11:15:46;30.50;47.50
76203;DHT22;64985;46.364;17.008;2023-05-07T11:18:53;29.90;46.70
76203;DHT22;64985;46.364;17.008;2023-05-07T11:21:55;28.70;47.10
76203;DHT22;64985;46.364;17.008;2023-05-07T11:24:59;28.70;51.10
76203;DHT22;64985;46.364;17.008;2023-05-07T11:28:07;29.60;49.00
76203;DHT22;64985;46.364;17.008;2023-05-07T11:31:12;30.20;45.70
76203;DHT22;64985;46.364;17.008;2023-05-07T11:34:15;29.80;46.30
76203;DHT22;64985;46.364;17.008;2023-05-07T11:37:23;30.00;44.90
76203;DHT22;64985;46.364;17.008;2023-05-07T11:40:26;29.90;50.00
76203;DHT22;64985;46.364;17.008;2023-05-07T11:43:31;30.10;48.00
76203;DHT22;64985;46.364;17.008;2023-05-07T11:46:34;29.70;46.70
76203;DHT22;64985;46.364;17.008;2023-05-07T11:49:36;30.00;49.60
76203;DHT22;64985;46.364;17.008;2023-05-07T11:52:38;29.50;48.20
76203;DHT22;64985;46.364;17.008;2023-05-07T11:55:41;29.30;48.10
76203;DHT22;64985;46.364;17.008;2023-05-07T11:58:45;29.00;51.00
76203;DHT22;64985;46.364;17.008;2023-05-07T12:01:47;29.50;49.60
76203;DHT22;64985;46.364;17.008;2023-05-07T12:04:50;29.80;49.50
76203;DHT22;64985;46.364;17.008;2023-05-07T12:07:56;30.80;49.50
76203;DHT22;64985;46.364;17.008;2023-05-07T12:10:59;31.00;46.50
76203;DHT22;64985;46.364;17.008;2023-05-07T12:14:01;31.30;47.90
76203;DHT22;64985;46.364;17.008;2023-05-07T12:17:07;31.30;46.10
76203;DHT22;64985;46.364;17.008;2023-05-07T12:20:10;30.60;45.70
76203;DHT22;64985;46.364;17.008;2023-05-07T12:23:13;29.40;48.60
76203;DHT22;64985;46.364;17.008;2023-05-07T12:26:15;28.60;49.90
76203;DHT22;64985;46.364;17.008;2023-05-07T12:29:17;29.20;49.70
76203;DHT22;64985;46.364;17.008;2023-05-07T12:32:23;29.40;49.60
76203;DHT22;64985;46.364;17.008;2023-05-07T12:35:32;28.90;48.80
76203;DHT22;64985;46.364;17.008;2023-05-07T12:38:38;28.30;50.40
76203;DHT22;64985;46.364;17.008;2023-05-07T12:41:57;28.70;49.60
76203;DHT22;64985;46.364;17.008;2023-05-07T12:45:36;28.60;49.10
76203;DHT22;64985;46.364;17.008;2023-05-07T12:48:43;28.40;52.00
76203;DHT22;64985;46.364;17.008;2023-05-07T12:51:47;28.50;50.70
76203;DHT22;64985;46.364;17.008;2023-05-07T12:54:50;29.20;52.60
76203;DHT22;64985;46.364;17.008;2023-05-07T12:57:53;28.90;49.90
76203;DHT22;64985;46.364;17.008;2023-05-07T13:00:56;28.90;49.70
76203;DHT22;64985;46.364;17.008;2023-05-07T13:04:03;28.40;50.80
76203;DHT22;64985;46.364;17.008;2023-05-07T13:07:06;28.40;48.40
76203;DHT22;64985;46.364;17.008;2023-05-07T13:10:09;27.70;48.90
76203;DHT22;64985;46.364;17.008;2023-05-07T13:13:11;27.50;52.60
76203;DHT22;64985;46.364;17.008;2023-05-07T13:16:14;27.70;50.90
76203;DHT22;64985;46.364;17.008;2023-05-07T13:19:17;28.10;53.20
76203;DHT22;64985;46.364;17.008;2023-05-07T13:22:19;28.40;51.70
76203;DHT22;64985;46.364;17.008;2023-05-07T13:25:21;28.40;50.20
76203;DHT22;64985;46.364;17.008;2023-05-07T13:28:24;28.20;50.20
76203;DHT22;64985;46.364;17.008;2023-05-07T13:31:27;28.20;52.90
76203;DHT22;64985;46.364;17.008;2023-05-07T13:34:30;28.70;50.90
76203;DHT22;64985;46.364;17.008;2023-05-07T13:37:32;29.00;51.20
76203;DHT22;64985;46.364;17.008;2023-05-07T13:40:34;29.20;50.10
76203;DHT22;64985;46.364;17.008;2023-05-07T13:43:36;29.80;49.70
76203;DHT22;64985;46.364;17.008;2023-05-07T13:46:39;29.70;49.10
76203;DHT22;64985;46.364;17.008;2023-05-07T13:49:41;29.50;47.50
76203;DHT22;64985;46.364;17.008;2023-05-07T13:52:44;29.40;47.20
76203;DHT22;64985;46.364;17.008;2023-05-07T13:55:52;29.50;46.70
76203;DHT22;64985;46.364;17.008;2023-05-07T13:58:54;29.80;44.90
76203;DHT22;64985;46.364;17.008;2023-05-07T14:02:01;29.70;47.50
76203;DHT22;64985;46.364;17.008;2023-05-07T14:05:04;29.40;46.50
76203;DHT22;64985;46.364;17.008;2023-05-07T14:08:06;29.30;47.00
76203;DHT22;64985;46.364;17.008;2023-05-07T14:11:09;29.30;45.20
76203;DHT22;64985;46.364;17.008;2023-05-07T14:14:12;29.20;45.30
76203;DHT22;64985;46.364;17.008;2023-05-07T14:17:14;29.30;45.20
76203;DHT22;64985;46.364;17.008;2023-05-07T14:20:16;29.20;46.90
76203;DHT22;64985;46.364;17.008;2023-05-07T14:23:18;29.10;48.40
76203;DHT22;64985;46.364;17.008;2023-05-07T14:26:21;28.90;48.90
76203;DHT22;64985;46.364;17.008;2023-05-07T14:29:24;28.60;49.00
76203;DHT22;64985;46.364;17.008;2023-05-07T14:32:27;28.40;49.50
76203;DHT22;64985;46.364;17.008;2023-05-07T14:35:29;28.30;51.00
76203;DHT22;64985;46.364;17.008;2023-05-07T14:38:31;28.10;48.30
76203;DHT22;64985;46.364;17.008;2023-05-07T14:41:34;27.80;50.90
76203;DHT22;64985;46.364;17.008;2023-05-07T14:44:36;27.50;50.60
76203;DHT22;64985;46.364;17.008;2023-05-07T14:47:39;27.20;49.60
76203;DHT22;64985;46.364;17.008;2023-05-07T14:50:42;27.00;52.00
76203;DHT22;64985;46.364;17.008;2023-05-07T14:53:44;26.90;52.40
76203;DHT22;64985;46.364;17.008;2023-05-07T14:56:47;26.80;52.00
76203;DHT22;64985;46.364;17.008;2023-05-07T14:59:49;26.90;52.50
76203;DHT22;64985;46.364;17.008;2023-05-07T15:02:51;26.70;52.10
76203;DHT22;64985;46.364;17.008;2023-05-07T15:05:54;26.80;53.20
76203;DHT22;64985;46.364;17.008;2023-05-07T15:08:56;26.60;52.60
76203;DHT22;64985;46.364;17.008;2023-05-07T15:11:58;26.50;53.90
76203;DHT22;64985;46.364;17.008;2023-05-07T15:15:01;26.40;54.10
76203;DHT22;64985;46.364;17.008;2023-05-07T15:18:03;26.20;54.00
76203;DHT22;64985;46.364;17.008;2023-05-07T15:21:05;26.00;55.10
76203;DHT22;64985;46.364;17.008;2023-05-07T15:24:08;25.80;55.70
76203;DHT22;64985;46.364;17.008;2023-05-07T15:27:11;25.50;57.20
76203;DHT22;64985;46.364;17.008;2023-05-07T15:30:13;25.20;56.40
76203;DHT22;64985;46.364;17.008;2023-05-07T15:33:16;25.00;56.90
76203;DHT22;64985;46.364;17.008;2023-05-07T15:36:20;24.80;59.30
76203;DHT22;64985;46.364;17.008;2023-05-07T15:39:22;24.70;58.40
76203;DHT22;64985;46.364;17.008;2023-05-07T15:42:26;24.60;58.70
76203;DHT22;64985;46.364;17.008;2023-05-07T15:45:28;24.60;57.10
76203;DHT22;64985;46.364;17.008;2023-05-07T15:48:30;24.50;58.70
76203;DHT22;64985;46.364;17.008;2023-05-07T15:51:34;24.30;59.50
76203;DHT22;64985;46.364;17.008;2023-05-07T15:54:37;24.10;60.50
76203;DHT22;64985;46.364;17.008;2023-05-07T15:57:43;24.10;60.50
76203;DHT22;64985;46.364;17.008;2023-05-07T16:00:45;24.00;61.60
76203;DHT22;64985;46.364;17.008;2023-05-07T16:03:51;24.00;62.30
76203;DHT22;64985;46.364;17.008;2023-05-07T16:06:53;23.80;62.20
76203;DHT22;64985;46.364;17.008;2023-05-07T16:09:56;23.70;62.80
76203;DHT22;64985;46.364;17.008;2023-05-07T16:12:58;23.60;65.70
76203;DHT22;64985;46.364;17.008;2023-05-07T16:16:00;23.40;64.70
76203;DHT22;64985;46.364;17.008;2023-05-07T16:19:02;23.20;65.00
76203;DHT22;64985;46.364;17.008;2023-05-07T16:22:05;23.00;66.20
76203;DHT22;64985;46.364;17.008;2023-05-07T16:25:07;22.80;67.60
76203;DHT22;64985;46.364;17.008;2023-05-07T16:28:10;22.60;68.20
76203;DHT22;64985;46.364;17.008;2023-05-07T16:31:13;22.50;68.30
76203;DHT22;64985;46.364;17.008;2023-05-07T16:34:15;22.30;69.80
76203;DHT22;64985;46.364;17.008;2023-05-07T16:37:17;22.20;71.10
76203;DHT22;64985;46.364;17.008;2023-05-07T16:40:19;21.90;73.40
76203;DHT22;64985;46.364;17.008;2023-05-07T16:43:22;21.70;79.00
76203;DHT22;64985;46.364;17.008;2023-05-07T16:46:24;21.60;77.10
76203;DHT22;64985;46.364;17.008;2023-05-07T16:49:26;21.40;80.30
76203;DHT22;64985;46.364;17.008;2023-05-07T16:52:29;21.20;82.70
76203;DHT22;64985;46.364;17.008;2023-05-07T16:55:31;21.10;86.60
76203;DHT22;64985;46.364;17.008;2023-05-07T16:58:39;21.00;90.50
76203;DHT22;64985;46.364;17.008;2023-05-07T17:01:41;20.80;92.20
76203;DHT22;64985;46.364;17.008;2023-05-07T17:04:44;20.50;94.20
76203;DHT22;64985;46.364;17.008;2023-05-07T17:07:46;20.40;95.80
76203;DHT22;64985;46.364;17.008;2023-05-07T17:10:48;20.20;95.70
76203;DHT22;64985;46.364;17.008;2023-05-07T17:13:50;20.10;95.90
76203;DHT22;64985;46.364;17.008;2023-05-07T17:16:53;19.90;95.80
76203;DHT22;64985;46.364;17.008;2023-05-07T17:19:55;19.80;96.70
76203;DHT22;64985;46.364;17.008;2023-05-07T17:22:58;19.70;97.50
76203;DHT22;64985;46.364;17.008;2023-05-07T17:26:00;19.50;97.10
76203;DHT22;64985;46.364;17.008;2023-05-07T17:29:02;19.50;98.40
76203;DHT22;64985;46.364;17.008;2023-05-07T17:32:05;19.30;98.60
76203;DHT22;64985;46.364;17.008;2023-05-07T17:35:09;19.20;98.30
76203;DHT22;64985;46.364;17.008;2023-05-07T17:38:11;19.20;99.10
76203;DHT22;64985;46.364;17.008;2023-05-07T17:41:13;19.00;99.10
76203;DHT22;64985;46.364;17.008;2023-05-07T17:44:16;18.90;99.70
76203;DHT22;64985;46.364;17.008;2023-05-07T17:47:19;18.90;99.90
76203;DHT22;64985;46.364;17.008;2023-05-07T17:50:21;18.80;99.90
76203;DHT22;64985;46.364;17.008;2023-05-07T17:53:23;18.70;99.80
76203;DHT22;64985;46.364;17.008;2023-05-07T17:56:25;18.70;99.90
76203;DHT22;64985;46.364;17.008;2023-05-07T17:59:28;18.60;99.90
76203;DHT22;64985;46.364;17.008;2023-05-07T18:02:30;18.60;99.90
76203;DHT22;64985;46.364;17.008;2023-05-07T18:05:35;18.60;99.90
76203;DHT22;64985;46.364;17.008;2023-05-07T18:08:38;18.50;99.90
76203;DHT22;64985;46.364;17.008;2023-05-07T18:11:40;18.50;99.90
76203;DHT22;64985;46.364;17.008;2023-05-07T18:14:42;18.40;99.90
76203;DHT22;64985;46.364;17.008;2023-05-07T18:17:45;18.30;99.90
76203;DHT22;64985;46.364;17.008;2023-05-07T18:20:50;18.30;99.90
76203;DHT22;64985;46.364;17.008;2023-05-07T18:23:52;18.20;99.90
76203;DHT22;64985;46.364;17.008;2023-05-07T18:26:54;18.10;99.90
76203;DHT22;64985;46.364;17.008;2023-05-07T18:29:57;18.00;99.90
76203;DHT22;64985;46.364;17.008;2023-05-07T18:32:59;17.80;99.90
76203;DHT22;64985;46.364;17.008;2023-05-07T18:36:02;17.60;99.90
76203;DHT22;64985;46.364;17.008;2023-05-07T18:39:04;17.50;99.90
76203;DHT22;64985;46.364;17.008;2023-05-07T18:42:07;17.40;99.90
76203;DHT22;64985;46.364;17.008;2023-05-07T18:45:10;17.20;99.90
76203;DHT22;64985;46.364;17.008;2023-05-07T18:48:13;17.00;99.90
76203;DHT22;64985;46.364;17.008;2023-05-07T18:51:18;16.80;99.90
76203;DHT22;64985;46.364;17.008;2023-05-07T18:54:21;16.70;99.90
76203;DHT22;64985;46.364;17.008;2023-05-07T18:57:23;16.60;99.90
76203;DHT22;64985;46.364;17.008;2023-05-07T19:00:26;16.60;99.90
76203;DHT22;64985;46.364;17.008;2023-05-07T19:03:29;16.60;99.90